createdAt,value
2023-06-30T00:00:01.710Z,16.9
2023-06-30T00:01:01.326Z,16.9
2023-06-30T00:02:00.907Z,16.9
2023-06-30T00:03:01.643Z,16.8
2023-06-30T00:04:01.302Z,16.9
2023-06-30T00:05:01.691Z,16.9
2023-06-30T00:06:01.277Z,16.8
2023-06-30T00:07:00.918Z,16.8
2023-06-30T00:08:01.441Z,16.8
2023-06-30T00:09:01.022Z,16.8
2023-06-30T00:10:01.604Z,16.8
2023-06-30T00:11:01.212Z,16.8
2023-06-30T00:12:01.779Z,16.7
2023-06-30T00:13:01.363Z,16.7
2023-06-30T00:14:00.994Z,16.7
2023-06-30T00:15:01.594Z,16.7
2023-06-30T00:16:01.248Z,16.7
2023-06-30T00:17:01.774Z,16.7
2023-06-30T00:18:01.391Z,16.6
2023-06-30T00:19:01.018Z,16.6
2023-06-30T00:20:01.593Z,16.6
2023-06-30T00:21:01.184Z,16.6
2023-06-30T00:22:01.789Z,16.7
2023-06-30T00:23:01.388Z,16.6
2023-06-30T00:24:00.965Z,16.6
2023-06-30T00:25:01.560Z,16.6
2023-06-30T00:26:01.185Z,16.5
2023-06-30T00:27:01.790Z,16.5
2023-06-30T00:28:01.390Z,16.6
2023-06-30T00:29:00.974Z,16.5
2023-06-30T00:30:01.545Z,16.5
2023-06-30T00:31:01.201Z,16.5
2023-06-30T00:32:01.714Z,16.5
2023-06-30T00:33:01.377Z,16.5
2023-06-30T00:34:00.943Z,16.4
2023-06-30T00:35:01.528Z,16.5
2023-06-30T00:36:01.157Z,16.4
2023-06-30T00:37:01.707Z,16.4
2023-06-30T00:38:01.311Z,16.4
2023-06-30T00:39:00.886Z,16.4
2023-06-30T00:40:01.468Z,16.3
2023-06-30T00:41:01.090Z,16.3
2023-06-30T00:42:01.667Z,16.3
2023-06-30T00:43:01.312Z,16.3
2023-06-30T00:44:00.866Z,16.3
2023-06-30T00:45:01.488Z,16.3
2023-06-30T00:46:01.081Z,16.3
2023-06-30T00:47:01.771Z,16.3
2023-06-30T00:48:01.348Z,16.3
2023-06-30T00:49:00.889Z,16.3
2023-06-30T00:50:01.469Z,16.3
2023-06-30T00:51:01.050Z,16.2
2023-06-30T00:52:01.623Z,16.2
2023-06-30T00:53:01.270Z,16.2
2023-06-30T00:54:00.798Z,16.2
2023-06-30T00:55:01.377Z,16.1
2023-06-30T00:56:00.980Z,16.1
2023-06-30T00:57:01.558Z,16.1
2023-06-30T00:58:01.177Z,16
2023-06-30T00:59:01.755Z,16
2023-06-30T01:00:01.342Z,15.9
2023-06-30T01:01:00.962Z,15.8
2023-06-30T01:02:01.560Z,15.8
2023-06-30T01:03:01.274Z,15.7
2023-06-30T01:04:01.894Z,15.7
2023-06-30T01:05:01.595Z,15.7
2023-06-30T01:06:01.021Z,15.7
2023-06-30T01:07:01.619Z,15.7
2023-06-30T01:08:01.253Z,15.7
2023-06-30T01:09:00.794Z,15.6
2023-06-30T01:10:01.417Z,15.6
2023-06-30T01:11:01.012Z,15.6
2023-06-30T01:12:01.602Z,15.6
2023-06-30T01:13:01.210Z,15.6
2023-06-30T01:14:00.808Z,15.6
2023-06-30T01:15:01.442Z,15.5
2023-06-30T01:16:01.047Z,15.5
2023-06-30T01:17:01.704Z,15.5
2023-06-30T01:18:01.392Z,15.5
2023-06-30T01:19:00.857Z,15.4
2023-06-30T01:20:01.472Z,15.3
2023-06-30T01:21:01.129Z,15.2
2023-06-30T01:22:01.648Z,15.1
2023-06-30T01:23:01.229Z,15
2023-06-30T01:24:00.829Z,15
2023-06-30T01:25:01.422Z,15.1
2023-06-30T01:26:01.066Z,15.1
2023-06-30T01:27:01.593Z,15.1
2023-06-30T01:28:01.181Z,15.1
2023-06-30T01:29:01.780Z,15
2023-06-30T01:30:01.506Z,15.1
2023-06-30T01:31:01.078Z,15.1
2023-06-30T01:32:01.579Z,15.1
2023-06-30T01:33:01.208Z,15.2
2023-06-30T01:34:01.745Z,15.2
2023-06-30T01:35:01.333Z,15.2
2023-06-30T01:36:01.036Z,15.2
2023-06-30T01:37:01.618Z,15.2
2023-06-30T01:38:01.206Z,15.1
2023-06-30T01:39:01.791Z,15.2
2023-06-30T01:40:01.375Z,15.2
2023-06-30T01:41:01.034Z,15.1
2023-06-30T01:42:01.588Z,15.1
2023-06-30T01:43:01.169Z,15.1
2023-06-30T01:44:01.752Z,15.1
2023-06-30T01:45:01.343Z,15.1
2023-06-30T01:46:00.975Z,15.1
2023-06-30T01:47:01.553Z,15.1
2023-06-30T01:48:01.201Z,15.1
2023-06-30T01:49:01.725Z,15
2023-06-30T01:50:01.419Z,15
2023-06-30T01:51:00.921Z,15
2023-06-30T01:52:01.462Z,15
2023-06-30T01:53:01.054Z,15
2023-06-30T01:54:01.646Z,14.9
2023-06-30T01:55:01.233Z,15
2023-06-30T01:56:01.803Z,15
2023-06-30T01:57:01.391Z,15
2023-06-30T01:58:00.973Z,15
2023-06-30T01:59:01.578Z,15
2023-06-30T02:00:01.164Z,15
2023-06-30T02:01:01.736Z,15
2023-06-30T02:02:01.384Z,15
2023-06-30T02:03:01.033Z,15
2023-06-30T02:04:01.659Z,15
2023-06-30T02:05:01.209Z,15
2023-06-30T02:06:01.784Z,15
2023-06-30T02:07:01.386Z,15
2023-06-30T02:08:01.050Z,15
2023-06-30T02:09:01.640Z,15.1
2023-06-30T02:10:01.326Z,15.1
2023-06-30T02:11:00.847Z,15.1
2023-06-30T02:12:01.456Z,15.1
2023-06-30T02:13:01.046Z,15.1
2023-06-30T02:14:01.643Z,15.1
2023-06-30T02:15:01.226Z,15.1
2023-06-30T02:16:01.856Z,15.1
2023-06-30T02:17:01.478Z,15.1
2023-06-30T02:18:01.050Z,15.1
2023-06-30T02:19:01.644Z,15
2023-06-30T02:20:01.279Z,15.1
2023-06-30T02:21:00.815Z,15.1
2023-06-30T02:22:01.409Z,15.1
2023-06-30T02:23:01.002Z,15
2023-06-30T02:24:01.597Z,15.1
2023-06-30T02:25:01.188Z,15.1
2023-06-30T02:26:01.760Z,15.1
2023-06-30T02:27:01.358Z,15.1
2023-06-30T02:28:00.948Z,15.1
2023-06-30T02:29:01.538Z,15.1
2023-06-30T02:30:01.160Z,15.1
2023-06-30T02:31:01.745Z,15.1
2023-06-30T02:32:01.369Z,15.1
2023-06-30T02:33:00.940Z,15.1
2023-06-30T02:34:01.559Z,15.2
2023-06-30T02:35:01.261Z,15.1
2023-06-30T02:36:01.732Z,15.2
2023-06-30T02:37:01.314Z,15.2
2023-06-30T02:38:00.942Z,15.2
2023-06-30T02:39:01.492Z,15.2
2023-06-30T02:40:01.083Z,15.3
2023-06-30T02:41:01.673Z,15.2
2023-06-30T02:42:01.273Z,15.3
2023-06-30T02:43:00.844Z,15.2
2023-06-30T02:44:01.447Z,15.2
2023-06-30T02:45:01.041Z,15.2
2023-06-30T02:46:01.634Z,15.2
2023-06-30T02:47:01.269Z,15.2
2023-06-30T02:48:00.885Z,15.2
2023-06-30T02:49:01.455Z,15.2
2023-06-30T02:50:01.047Z,15.2
2023-06-30T02:51:01.660Z,15.2
2023-06-30T02:52:01.253Z,15.2
2023-06-30T02:53:00.852Z,15.2
2023-06-30T02:54:01.433Z,15.2
2023-06-30T02:55:01.028Z,15.3
2023-06-30T02:56:01.623Z,15.2
2023-06-30T02:57:01.204Z,15.2
2023-06-30T02:58:01.828Z,15.2
2023-06-30T02:59:01.423Z,15.2
2023-06-30T03:00:01.008Z,15.2
2023-06-30T03:01:01.674Z,15.1
2023-06-30T03:02:01.337Z,15.1
2023-06-30T03:03:01.883Z,15.1
2023-06-30T03:04:01.548Z,15.1
2023-06-30T03:05:01.066Z,15.2
2023-06-30T03:06:01.670Z,15.1
2023-06-30T03:07:01.291Z,15.1
2023-06-30T03:08:00.833Z,15.1
2023-06-30T03:09:01.397Z,15.1
2023-06-30T03:10:00.987Z,15.1
2023-06-30T03:11:01.585Z,15.1
2023-06-30T03:12:01.199Z,15
2023-06-30T03:13:01.755Z,15.1
2023-06-30T03:14:01.376Z,15
2023-06-30T03:15:00.973Z,15
2023-06-30T03:16:01.546Z,15
2023-06-30T03:17:01.197Z,15
2023-06-30T03:18:01.798Z,15
2023-06-30T03:19:01.365Z,15
2023-06-30T03:20:00.952Z,15.1
2023-06-30T03:21:01.540Z,15
2023-06-30T03:22:01.145Z,15
2023-06-30T03:23:01.751Z,15
2023-06-30T03:24:01.349Z,15
2023-06-30T03:25:00.923Z,15
2023-06-30T03:26:01.495Z,15.1
2023-06-30T03:27:01.083Z,15.1
2023-06-30T03:28:01.674Z,15
2023-06-30T03:29:01.256Z,15.1
2023-06-30T03:30:00.828Z,15.1
2023-06-30T03:31:01.896Z,15
2023-06-30T03:32:01.050Z,15
2023-06-30T03:33:01.659Z,15
2023-06-30T03:34:01.288Z,15
2023-06-30T03:35:00.848Z,14.9
2023-06-30T03:36:01.427Z,14.9
2023-06-30T03:37:01.042Z,15
2023-06-30T03:38:01.642Z,15
2023-06-30T03:39:01.265Z,14.9
2023-06-30T03:40:01.838Z,14.9
2023-06-30T03:41:01.564Z,15
2023-06-30T03:42:01.036Z,15
2023-06-30T03:43:01.618Z,15
2023-06-30T03:44:01.286Z,15
2023-06-30T03:45:00.853Z,15
2023-06-30T03:46:01.487Z,15
2023-06-30T03:47:01.172Z,15
2023-06-30T03:48:01.703Z,14.9
2023-06-30T03:49:01.348Z,14.9
2023-06-30T03:50:00.890Z,14.9
2023-06-30T03:51:01.479Z,15
2023-06-30T03:52:01.078Z,15
2023-06-30T03:53:01.642Z,14.9
2023-06-30T03:54:01.254Z,14.9
2023-06-30T03:55:01.842Z,15
2023-06-30T03:56:01.441Z,15
2023-06-30T03:57:01.025Z,15
2023-06-30T03:58:01.599Z,14.9
2023-06-30T03:59:01.180Z,15
2023-06-30T04:00:01.770Z,15
2023-06-30T04:01:01.360Z,15
2023-06-30T04:02:00.938Z,14.9
2023-06-30T04:03:01.584Z,14.9
2023-06-30T04:04:01.231Z,14.9
2023-06-30T04:05:01.865Z,15
2023-06-30T04:06:01.398Z,14.9
2023-06-30T04:07:01.073Z,15
2023-06-30T04:08:01.663Z,14.9
2023-06-30T04:09:01.194Z,14.9
2023-06-30T04:10:01.788Z,14.9
2023-06-30T04:11:01.399Z,14.9
2023-06-30T04:12:00.974Z,14.9
2023-06-30T04:13:01.527Z,14.9
2023-06-30T04:14:01.125Z,14.9
2023-06-30T04:15:01.745Z,14.9
2023-06-30T04:16:01.404Z,14.9
2023-06-30T04:17:00.954Z,15
2023-06-30T04:18:01.568Z,14.9
2023-06-30T04:19:01.158Z,14.9
2023-06-30T04:20:01.737Z,14.9
2023-06-30T04:21:01.324Z,15
2023-06-30T04:22:02.530Z,14.9
2023-06-30T04:23:01.461Z,14.9
2023-06-30T04:24:01.047Z,15
2023-06-30T04:25:01.635Z,14.9
2023-06-30T04:26:01.224Z,14.9
2023-06-30T04:27:01.843Z,15
2023-06-30T04:28:01.425Z,14.9
2023-06-30T04:29:01.036Z,15
2023-06-30T04:30:01.638Z,15
2023-06-30T04:31:01.236Z,15.1
2023-06-30T04:32:01.850Z,15
2023-06-30T04:33:01.571Z,15
2023-06-30T04:34:01.054Z,15.1
2023-06-30T04:35:01.634Z,15
2023-06-30T04:36:01.283Z,15.1
2023-06-30T04:37:01.801Z,15
2023-06-30T04:38:01.393Z,15.1
2023-06-30T04:39:01.047Z,15.1
2023-06-30T04:40:01.609Z,15.1
2023-06-30T04:41:01.213Z,15.1
2023-06-30T04:42:01.796Z,15.1
2023-06-30T04:43:01.435Z,15.1
2023-06-30T04:44:01.089Z,15.1
2023-06-30T04:45:01.628Z,15.1
2023-06-30T04:46:01.292Z,15.1
2023-06-30T04:47:01.838Z,15.1
2023-06-30T04:48:01.459Z,15.1
2023-06-30T04:49:01.069Z,15.1
2023-06-30T04:50:01.716Z,15.2
2023-06-30T04:51:01.316Z,15.1
2023-06-30T04:52:00.892Z,15.2
2023-06-30T04:53:01.473Z,15.1
2023-06-30T04:54:01.057Z,15.2
2023-06-30T04:55:01.705Z,15.2
2023-06-30T04:56:01.302Z,15.2
2023-06-30T04:57:00.872Z,15.2
2023-06-30T04:58:01.455Z,15.3
2023-06-30T04:59:01.082Z,15.3
2023-06-30T05:00:01.649Z,15.3
2023-06-30T05:01:01.269Z,15.4
2023-06-30T05:02:01.979Z,15.4
2023-06-30T05:03:01.738Z,15.4
2023-06-30T05:04:01.221Z,15.4
2023-06-30T05:05:01.657Z,15.3
2023-06-30T05:06:01.243Z,15.3
2023-06-30T05:07:01.870Z,15.4
2023-06-30T05:08:01.467Z,15.4
2023-06-30T05:09:01.056Z,15.5
2023-06-30T05:10:01.642Z,15.5
2023-06-30T05:11:01.235Z,15.4
2023-06-30T05:12:01.848Z,15.5
2023-06-30T05:13:01.457Z,15.4
2023-06-30T05:14:01.060Z,15.5
2023-06-30T05:15:01.664Z,15.6
2023-06-30T05:16:01.325Z,15.5
2023-06-30T05:17:01.916Z,15.5
2023-06-30T05:18:01.555Z,15.6
2023-06-30T05:19:01.059Z,15.6
2023-06-30T05:20:01.637Z,15.7
2023-06-30T05:21:01.219Z,15.6
2023-06-30T05:22:01.817Z,15.6
2023-06-30T05:23:01.416Z,15.6
2023-06-30T05:24:01.025Z,15.6
2023-06-30T05:25:01.592Z,15.6
2023-06-30T05:26:01.178Z,15.5
2023-06-30T05:27:01.755Z,15.5
2023-06-30T05:28:01.336Z,15.4
2023-06-30T05:29:05.062Z,15.5
2023-06-30T05:30:01.485Z,15.4
2023-06-30T05:31:01.123Z,15.5
2023-06-30T05:32:01.675Z,15.6
2023-06-30T05:33:01.300Z,15.6
2023-06-30T05:34:01.855Z,15.8
2023-06-30T05:35:01.466Z,15.8
2023-06-30T05:36:01.076Z,15.9
2023-06-30T05:37:01.630Z,15.8
2023-06-30T05:38:01.233Z,15.8
2023-06-30T05:39:01.839Z,15.8
2023-06-30T05:40:01.442Z,15.9
2023-06-30T05:41:01.022Z,16
2023-06-30T05:42:01.604Z,16.1
2023-06-30T05:43:01.183Z,16.1
2023-06-30T05:44:01.866Z,16.1
2023-06-30T05:45:01.453Z,16.3
2023-06-30T05:46:01.013Z,16.3
2023-06-30T05:47:01.651Z,16.4
2023-06-30T05:48:01.301Z,16.3
2023-06-30T05:49:01.852Z,16.4
2023-06-30T05:50:01.474Z,16.3
2023-06-30T05:51:01.350Z,16.3
2023-06-30T05:52:01.644Z,16.4
2023-06-30T05:53:01.392Z,16.4
2023-06-30T05:54:01.851Z,16.4
2023-06-30T05:55:01.478Z,16.4
2023-06-30T05:56:01.071Z,16.3
2023-06-30T05:57:01.641Z,16.2
2023-06-30T05:58:01.234Z,16.2
2023-06-30T05:59:01.837Z,16.2
2023-06-30T06:00:01.474Z,16.3
2023-06-30T06:01:01.060Z,16.4
2023-06-30T06:02:01.864Z,16.5
2023-06-30T06:03:01.386Z,16.6
2023-06-30T06:04:01.198Z,16.5
2023-06-30T06:05:01.352Z,16.5
2023-06-30T06:06:01.145Z,16.6
2023-06-30T06:07:03.329Z,16.6
2023-06-30T06:08:01.205Z,16.6
2023-06-30T06:09:01.806Z,16.6
2023-06-30T06:10:01.415Z,16.5
2023-06-30T06:11:01.046Z,16.7
2023-06-30T06:12:01.624Z,16.8
2023-06-30T06:13:01.304Z,16.6
2023-06-30T06:14:01.804Z,16.6
2023-06-30T06:15:01.389Z,16.7
2023-06-30T06:16:00.998Z,16.9
2023-06-30T06:17:01.580Z,17
2023-06-30T06:18:01.245Z,16.9
2023-06-30T06:19:01.862Z,16.9
2023-06-30T06:20:01.452Z,16.7
2023-06-30T06:21:01.046Z,16.8
2023-06-30T06:22:01.624Z,16.9
2023-06-30T06:23:01.241Z,16.9
2023-06-30T06:24:01.855Z,16.9
2023-06-30T06:25:01.439Z,16.9
2023-06-30T06:26:01.030Z,16.9
2023-06-30T06:27:01.616Z,16.8
2023-06-30T06:28:01.503Z,16.7
2023-06-30T06:29:01.809Z,16.8
2023-06-30T06:30:01.601Z,16.8
2023-06-30T06:31:00.983Z,17
2023-06-30T06:32:01.567Z,17.1
2023-06-30T06:33:01.189Z,17.2
2023-06-30T06:34:01.945Z,17.2
2023-06-30T06:35:01.520Z,17.3
2023-06-30T06:36:01.011Z,17.2
2023-06-30T06:37:01.789Z,17.3
2023-06-30T06:38:01.220Z,17.2
2023-06-30T06:39:03.749Z,17
2023-06-30T06:40:01.385Z,17
2023-06-30T06:41:00.988Z,17
2023-06-30T06:42:01.556Z,16.8
2023-06-30T06:43:01.167Z,16.7
2023-06-30T06:44:01.748Z,16.6
2023-06-30T06:45:01.344Z,16.6
2023-06-30T06:46:00.967Z,16.7
2023-06-30T06:47:01.517Z,16.5
2023-06-30T06:48:01.097Z,16.6
2023-06-30T06:49:01.747Z,16.5
2023-06-30T06:50:01.357Z,16.7
2023-06-30T06:51:00.946Z,16.8
2023-06-30T06:52:01.519Z,16.7
2023-06-30T06:53:01.097Z,16.8
2023-06-30T06:54:01.697Z,16.8
2023-06-30T06:55:01.296Z,16.8
2023-06-30T06:56:01.887Z,16.7
2023-06-30T06:57:01.487Z,16.7
2023-06-30T06:58:01.071Z,16.8
2023-06-30T06:59:01.679Z,16.9
2023-06-30T07:00:02.946Z,16.7
2023-06-30T07:01:01.801Z,16.5
2023-06-30T07:02:01.432Z,16.4
2023-06-30T07:03:01.051Z,16.4
2023-06-30T07:04:01.696Z,16.4
2023-06-30T07:05:01.278Z,16.7
2023-06-30T07:06:01.852Z,16.8
2023-06-30T07:07:01.487Z,16.8
2023-06-30T07:08:01.090Z,16.6
2023-06-30T07:09:01.694Z,16.6
2023-06-30T07:10:01.311Z,16.7
2023-06-30T07:11:01.864Z,16.7
2023-06-30T07:12:01.444Z,16.9
2023-06-30T07:13:01.056Z,16.9
2023-06-30T07:14:01.631Z,16.7
2023-06-30T07:15:01.253Z,16.7
2023-06-30T07:16:01.853Z,16.6
2023-06-30T07:17:01.457Z,16.6
2023-06-30T07:18:01.073Z,16.9
2023-06-30T07:19:01.668Z,17.1
2023-06-30T07:20:01.292Z,16.8
2023-06-30T07:21:01.877Z,17.1
2023-06-30T07:22:01.463Z,17.4
2023-06-30T07:23:01.065Z,17.4
2023-06-30T07:24:01.626Z,17.4
2023-06-30T07:25:01.235Z,17.3
2023-06-30T07:26:01.787Z,17.2
2023-06-30T07:27:01.377Z,17.3
2023-06-30T07:28:00.960Z,17.3
2023-06-30T07:29:01.541Z,17.3
2023-06-30T07:30:01.143Z,17.3
2023-06-30T07:31:01.727Z,17.4
2023-06-30T07:32:01.380Z,17.4
2023-06-30T07:33:00.965Z,17.3
2023-06-30T07:34:01.505Z,17.3
2023-06-30T07:35:01.107Z,17.2
2023-06-30T07:36:01.703Z,17.2
2023-06-30T07:37:01.283Z,17.1
2023-06-30T07:38:01.862Z,17.3
2023-06-30T07:39:01.471Z,17.5
2023-06-30T07:40:12.083Z,17.8
2023-06-30T07:41:01.719Z,17.8
2023-06-30T07:42:01.329Z,18
2023-06-30T07:43:01.895Z,17.8
2023-06-30T07:44:01.477Z,17.8
2023-06-30T07:45:01.064Z,17.6
2023-06-30T07:46:01.667Z,17.3
2023-06-30T07:47:01.512Z,17.3
2023-06-30T07:48:01.981Z,17.3
2023-06-30T07:49:01.721Z,17.3
2023-06-30T07:50:01.109Z,17.2
2023-06-30T07:51:08.921Z,17.1
2023-06-30T07:52:01.244Z,17.1
2023-06-30T07:53:01.822Z,17.2
2023-06-30T07:54:01.420Z,17.2
2023-06-30T07:55:01.053Z,17.3
2023-06-30T07:56:01.578Z,17.3
2023-06-30T07:57:01.186Z,17.3
2023-06-30T07:58:01.751Z,17.2
2023-06-30T07:59:01.339Z,17.3
2023-06-30T08:00:01.916Z,17.5
2023-06-30T08:01:01.557Z,17.5
2023-06-30T08:02:01.195Z,17.7
2023-06-30T08:03:01.888Z,17.7
2023-06-30T08:04:01.502Z,17.8
2023-06-30T08:05:01.148Z,18.1
2023-06-30T08:06:01.793Z,18.2
2023-06-30T08:07:01.273Z,18.3
2023-06-30T08:08:01.911Z,18.5
2023-06-30T08:09:01.503Z,18.7
2023-06-30T08:10:01.076Z,18.4
2023-06-30T08:11:01.897Z,18.4
2023-06-30T08:12:01.318Z,18.3
2023-06-30T08:13:01.920Z,17.8
2023-06-30T08:14:01.510Z,17.8
2023-06-30T08:15:01.098Z,17.9
2023-06-30T08:16:01.723Z,18.1
2023-06-30T08:17:01.654Z,18.2
2023-06-30T08:18:06.651Z,18.2
2023-06-30T08:19:01.518Z,18.1
2023-06-30T08:20:01.233Z,18.2
2023-06-30T08:21:01.137Z,18.2
2023-06-30T08:22:01.941Z,18.2
2023-06-30T08:23:01.583Z,18.2
2023-06-30T08:24:01.154Z,18.1
2023-06-30T08:25:01.739Z,18
2023-06-30T08:26:01.366Z,17.9
2023-06-30T08:27:01.950Z,18
2023-06-30T08:28:01.555Z,17.9
2023-06-30T08:29:01.140Z,17.8
2023-06-30T08:30:01.720Z,18.1
2023-06-30T08:31:01.383Z,18.3
2023-06-30T08:32:01.929Z,18.3
2023-06-30T08:33:01.539Z,18.4
2023-06-30T08:34:01.192Z,18.4
2023-06-30T08:35:01.768Z,18.6
2023-06-30T08:36:01.358Z,18.5
2023-06-30T08:37:00.940Z,18.5
2023-06-30T08:38:01.520Z,18.5
2023-06-30T08:39:01.121Z,18.5
2023-06-30T08:40:01.691Z,18.5
2023-06-30T08:41:01.617Z,18.7
2023-06-30T08:42:01.860Z,18.7
2023-06-30T08:43:01.682Z,18.8
2023-06-30T08:44:01.116Z,18.8
2023-06-30T08:45:01.686Z,18.6
2023-06-30T08:46:01.264Z,18.3
2023-06-30T08:47:01.962Z,18.2
2023-06-30T08:48:01.560Z,18.2
2023-06-30T08:49:01.108Z,18.1
2023-06-30T08:50:01.677Z,17.9
2023-06-30T08:51:01.305Z,17.8
2023-06-30T08:52:01.858Z,17.7
2023-06-30T08:53:01.473Z,17.6
2023-06-30T08:54:01.048Z,17.8
2023-06-30T08:55:01.621Z,18
2023-06-30T08:56:01.613Z,18.1
2023-06-30T08:57:01.440Z,18.4
2023-06-30T08:58:06.954Z,18.3
2023-06-30T08:59:01.632Z,18.5
2023-06-30T09:00:01.252Z,18.4
2023-06-30T09:01:01.864Z,18.6
2023-06-30T09:02:01.505Z,18.8
2023-06-30T09:03:01.122Z,18.9
2023-06-30T09:04:01.673Z,18.9
2023-06-30T09:05:01.323Z,19
2023-06-30T09:06:01.876Z,19.2
2023-06-30T09:07:01.817Z,19.2
2023-06-30T09:08:01.120Z,19.4
2023-06-30T09:09:01.722Z,19.5
2023-06-30T09:10:01.364Z,19.4
2023-06-30T09:11:01.959Z,19.2
2023-06-30T09:12:01.562Z,18.9
2023-06-30T09:13:01.145Z,18.8
2023-06-30T09:14:01.740Z,18.9
2023-06-30T09:15:01.466Z,19.1
2023-06-30T09:16:01.906Z,19.4
2023-06-30T09:17:01.523Z,19.2
2023-06-30T09:18:01.166Z,19.2
2023-06-30T09:19:01.696Z,19.1
2023-06-30T09:20:01.295Z,19.3
2023-06-30T09:21:01.872Z,19.3
2023-06-30T09:22:05.915Z,19.1
2023-06-30T09:23:00.990Z,19.2
2023-06-30T09:24:01.677Z,19.2
2023-06-30T09:25:01.238Z,19.1
2023-06-30T09:26:01.838Z,19.3
2023-06-30T09:27:01.464Z,19.3
2023-06-30T09:28:01.047Z,19.3
2023-06-30T09:29:01.634Z,19.3
2023-06-30T09:30:01.266Z,19.4
2023-06-30T09:31:01.872Z,19.3
2023-06-30T09:32:01.477Z,19.2
2023-06-30T09:33:01.077Z,19.2
2023-06-30T09:34:01.623Z,19.5
2023-06-30T09:35:01.218Z,19.3
2023-06-30T09:36:01.826Z,19.3
2023-06-30T09:37:01.417Z,19.5
2023-06-30T09:38:01.001Z,19.6
2023-06-30T09:39:01.589Z,19.6
2023-06-30T09:40:01.187Z,19.8
2023-06-30T09:41:01.789Z,19.9
2023-06-30T09:42:01.436Z,19.8
2023-06-30T09:43:01.955Z,19.8
2023-06-30T09:44:01.554Z,19.7
2023-06-30T09:45:01.166Z,19.5
2023-06-30T09:46:01.810Z,19.6
2023-06-30T09:47:01.458Z,19.5
2023-06-30T09:48:01.057Z,19.5
2023-06-30T09:49:01.577Z,19.6
2023-06-30T09:50:01.217Z,19.7
2023-06-30T09:51:01.760Z,19.7
2023-06-30T09:52:01.341Z,19.9
2023-06-30T09:53:01.928Z,19.8
2023-06-30T09:54:01.516Z,19.5
2023-06-30T09:55:01.131Z,19.1
2023-06-30T09:56:01.686Z,19.2
2023-06-30T09:57:01.367Z,19.2
2023-06-30T09:58:01.882Z,19.5
2023-06-30T09:59:01.485Z,19.6
2023-06-30T10:00:01.084Z,19.7
2023-06-30T10:01:01.680Z,19.6
2023-06-30T10:02:01.289Z,19.6
2023-06-30T10:03:02.051Z,19.5
2023-06-30T10:04:01.578Z,19.7
2023-06-30T10:05:01.116Z,19.7
2023-06-30T10:06:01.715Z,19.7
2023-06-30T10:07:01.371Z,19.7
2023-06-30T10:08:01.912Z,19.9
2023-06-30T10:09:01.549Z,20
2023-06-30T10:10:01.114Z,19.9
2023-06-30T10:11:01.708Z,19.8
2023-06-30T10:12:01.368Z,19.8
2023-06-30T10:13:01.918Z,20
2023-06-30T10:14:01.541Z,20.2
2023-06-30T10:15:01.130Z,20.4
2023-06-30T10:16:01.729Z,20.5
2023-06-30T10:17:01.335Z,20.3
2023-06-30T10:18:02.031Z,20.1
2023-06-30T10:19:01.760Z,20.1
2023-06-30T10:20:02.047Z,20.2
2023-06-30T10:21:01.290Z,20.4
2023-06-30T10:22:01.902Z,20.3
2023-06-30T10:23:01.490Z,19.9
2023-06-30T10:24:01.082Z,19.8
2023-06-30T10:25:01.698Z,19.9
2023-06-30T10:26:01.818Z,20.2
2023-06-30T10:27:01.454Z,20.5
2023-06-30T10:28:01.044Z,20.8
2023-06-30T10:29:01.630Z,20.8
2023-06-30T10:30:01.237Z,20.9
2023-06-30T10:31:01.807Z,20.9
2023-06-30T10:32:01.405Z,20.6
2023-06-30T10:33:02.041Z,20.7
2023-06-30T10:34:01.688Z,20.9
2023-06-30T10:35:01.251Z,21
2023-06-30T10:36:01.827Z,20.7
2023-06-30T10:37:01.424Z,20.5
2023-06-30T10:38:01.002Z,20.4
2023-06-30T10:39:01.580Z,20.4
2023-06-30T10:40:01.490Z,20.3
2023-06-30T10:41:01.683Z,20.4
2023-06-30T10:42:01.274Z,20.6
2023-06-30T10:43:01.915Z,20.9
2023-06-30T10:44:01.545Z,20.8
2023-06-30T10:45:01.114Z,20.9
2023-06-30T10:46:01.719Z,20.9
2023-06-30T10:47:01.322Z,21
2023-06-30T10:48:01.899Z,21.2
2023-06-30T10:49:01.502Z,21.1
2023-06-30T10:50:01.083Z,21.1
2023-06-30T10:51:01.706Z,21
2023-06-30T10:52:02.557Z,21.2
2023-06-30T10:53:01.844Z,21
2023-06-30T10:54:01.430Z,20.9
2023-06-30T10:55:02.037Z,20.9
2023-06-30T10:56:01.682Z,21.1
2023-06-30T10:57:01.250Z,21.2
2023-06-30T10:58:03.318Z,21.1
2023-06-30T10:59:01.974Z,21.2
2023-06-30T11:00:01.072Z,21.2
2023-06-30T11:01:01.681Z,21.4
2023-06-30T11:02:01.266Z,21.5
2023-06-30T11:03:02.007Z,21.6
2023-06-30T11:04:02.272Z,21.5
2023-06-30T11:05:01.100Z,21.7
2023-06-30T11:06:01.708Z,21.7
2023-06-30T11:07:01.364Z,21.7
2023-06-30T11:08:01.911Z,21.8
2023-06-30T11:09:01.504Z,21.8
2023-06-30T11:10:01.710Z,21.6
2023-06-30T11:11:01.069Z,21.5
2023-06-30T11:12:01.682Z,21.7
2023-06-30T11:13:01.922Z,21.9
2023-06-30T11:14:01.502Z,22.2
2023-06-30T11:15:01.088Z,21.9
2023-06-30T11:16:01.667Z,21.8
2023-06-30T11:17:01.262Z,21.5
2023-06-30T11:18:01.920Z,21.3
2023-06-30T11:19:01.651Z,21.1
2023-06-30T11:20:01.089Z,21.3
2023-06-30T11:21:01.665Z,21.3
2023-06-30T11:22:01.560Z,21.8
2023-06-30T11:23:01.621Z,21.8
2023-06-30T11:24:01.234Z,21.8
2023-06-30T11:25:01.804Z,21.7
2023-06-30T11:26:01.388Z,21.5
2023-06-30T11:27:01.973Z,21.3
2023-06-30T11:28:01.590Z,21.3
2023-06-30T11:29:01.204Z,21.4
2023-06-30T11:30:01.804Z,21.7
2023-06-30T11:31:01.437Z,21.6
2023-06-30T11:32:01.998Z,21.7
2023-06-30T11:33:01.615Z,21.8
2023-06-30T11:34:01.693Z,21.9
2023-06-30T11:35:01.947Z,22
2023-06-30T11:36:01.396Z,21.9
2023-06-30T11:37:01.984Z,21.9
2023-06-30T11:38:01.576Z,22.1
2023-06-30T11:39:01.198Z,22
2023-06-30T11:40:03.429Z,22.1
2023-06-30T11:41:01.311Z,22.1
2023-06-30T11:42:01.925Z,22.4
2023-06-30T11:43:01.507Z,22.6
2023-06-30T11:44:01.158Z,22.3
2023-06-30T11:45:01.687Z,22.1
2023-06-30T11:46:02.833Z,22
2023-06-30T11:47:01.758Z,22.2
2023-06-30T11:48:01.401Z,22.4
2023-06-30T11:49:01.979Z,22.4
2023-06-30T11:50:01.569Z,22.5
2023-06-30T11:51:01.181Z,22.3
2023-06-30T11:52:02.372Z,22.1
2023-06-30T11:53:01.058Z,22.1
2023-06-30T11:54:01.670Z,21.9
2023-06-30T11:55:01.279Z,21.9
2023-06-30T11:56:01.859Z,21.7
2023-06-30T11:57:01.464Z,21.5
2023-06-30T11:58:03.219Z,21.3
2023-06-30T11:59:01.898Z,21.4
2023-06-30T12:00:01.276Z,21.4
2023-06-30T12:01:01.876Z,21.4
2023-06-30T12:02:01.460Z,21.3
2023-06-30T12:03:01.094Z,21.5
2023-06-30T12:04:01.699Z,21.6
2023-06-30T12:05:01.360Z,21.6
2023-06-30T12:06:01.885Z,21.6
2023-06-30T12:07:01.488Z,21.9
2023-06-30T12:08:01.048Z,22.2
2023-06-30T12:09:01.633Z,22
2023-06-30T12:10:01.243Z,22
2023-06-30T12:11:01.850Z,21.6
2023-06-30T12:12:01.445Z,21.6
2023-06-30T12:13:02.027Z,21.6
2023-06-30T12:14:01.606Z,21.6
2023-06-30T12:15:01.187Z,21.8
2023-06-30T12:16:01.819Z,21.6
2023-06-30T12:17:01.444Z,21.7
2023-06-30T12:18:02.027Z,21.9
2023-06-30T12:19:01.642Z,22.2
2023-06-30T12:20:01.222Z,22.2
2023-06-30T12:21:01.810Z,22.3
2023-06-30T12:22:01.518Z,22.2
2023-06-30T12:23:01.980Z,21.7
2023-06-30T12:24:01.566Z,21.8
2023-06-30T12:25:01.150Z,21.7
2023-06-30T12:26:01.733Z,21.8
2023-06-30T12:27:01.354Z,21.8
2023-06-30T12:28:01.894Z,21.6
2023-06-30T12:29:01.479Z,21.5
2023-06-30T12:30:01.069Z,21.3
2023-06-30T12:31:01.645Z,21.3
2023-06-30T12:32:01.280Z,21.2
2023-06-30T12:33:01.992Z,21
2023-06-30T12:34:01.490Z,20.9
2023-06-30T12:35:04.211Z,20.9
2023-06-30T12:36:01.587Z,20.8
2023-06-30T12:37:01.208Z,20.7
2023-06-30T12:38:01.772Z,20.8
2023-06-30T12:39:01.404Z,20.9
2023-06-30T12:40:02.003Z,21
2023-06-30T12:41:01.591Z,21
2023-06-30T12:42:01.208Z,21
2023-06-30T12:43:01.806Z,21.1
2023-06-30T12:44:01.715Z,21.2
2023-06-30T12:45:01.991Z,21.1
2023-06-30T12:46:01.613Z,21.2
2023-06-30T12:47:01.241Z,21.3
2023-06-30T12:48:01.831Z,21.3
2023-06-30T12:49:01.521Z,21.4
2023-06-30T12:50:02.050Z,21.7
2023-06-30T12:51:01.702Z,21.7
2023-06-30T12:52:03.701Z,21.8
2023-06-30T12:53:01.936Z,21.9
2023-06-30T12:54:01.553Z,21.9
2023-06-30T12:55:01.120Z,22.1
2023-06-30T12:56:01.704Z,22.2
2023-06-30T12:57:01.293Z,22
2023-06-30T12:58:01.882Z,22.2
2023-06-30T12:59:01.514Z,22.2
2023-06-30T13:00:02.076Z,22.2
2023-06-30T13:01:01.675Z,22.3
2023-06-30T13:02:01.261Z,22.4
2023-06-30T13:03:01.880Z,22.5
2023-06-30T13:04:01.615Z,22.6
2023-06-30T13:05:02.066Z,22.8
2023-06-30T13:06:01.686Z,23.2
2023-06-30T13:07:01.329Z,23.2
2023-06-30T13:08:01.864Z,23.6
2023-06-30T13:09:01.476Z,23.8
2023-06-30T13:10:02.039Z,23.3
2023-06-30T13:11:01.623Z,23
2023-06-30T13:12:01.216Z,23.2
2023-06-30T13:13:01.800Z,23.2
2023-06-30T13:14:01.400Z,23.3
2023-06-30T13:15:02.013Z,23.4
2023-06-30T13:16:01.604Z,23.4
2023-06-30T13:17:01.178Z,23.4
2023-06-30T13:18:01.770Z,23.1
2023-06-30T13:19:01.397Z,23.1
2023-06-30T13:20:01.964Z,23
2023-06-30T13:21:01.554Z,22.8
2023-06-30T13:22:01.136Z,22.4
2023-06-30T13:23:10.424Z,22.3
2023-06-30T13:24:01.271Z,22.2
2023-06-30T13:25:01.854Z,22